sensor_id;sensor_type;location;lat;lon;timestamp;P1;durP1;ratioP1;P2;durP2;ratioP2
49412;SDS011;35493;50.276;9.372;2022-11-12T00:01:37;12.10;;;5.70;;
49412;SDS011;35493;50.276;9.372;2022-11-12T00:04:23;11.15;;;5.32;;
49412;SDS011;35493;50.276;9.372;2022-11-12T00:07:08;8.55;;;4.85;;
49412;SDS011;35493;50.276;9.372;2022-11-12T00:09:56;8.82;;;4.53;;
49412;SDS011;35493;50.276;9.372;2022-11-12T00:12:44;9.57;;;5.10;;
49412;SDS011;35493;50.276;9.372;2022-11-12T00:15:30;9.60;;;5.05;;
49412;SDS011;35493;50.276;9.372;2022-11-12T00:18:16;10.52;;;5.57;;
49412;SDS011;35493;50.276;9.372;2022-11-12T00:21:01;9.82;;;6.50;;
49412;SDS011;35493;50.276;9.372;2022-11-12T00:23:47;12.55;;;5.45;;
49412;SDS011;35493;50.276;9.372;2022-11-12T00:26:34;8.68;;;5.03;;
49412;SDS011;35493;50.276;9.372;2022-11-12T00:29:19;10.25;;;5.30;;
49412;SDS011;35493;50.276;9.372;2022-11-12T00:32:05;10.35;;;5.55;;
49412;SDS011;35493;50.276;9.372;2022-11-12T00:34:51;8.43;;;4.50;;
49412;SDS011;35493;50.276;9.372;2022-11-12T00:37:36;9.80;;;5.00;;
49412;SDS011;35493;50.276;9.372;2022-11-12T00:40:22;9.80;;;5.30;;
49412;SDS011;35493;50.276;9.372;2022-11-12T00:43:09;12.63;;;5.38;;
49412;SDS011;35493;50.276;9.372;2022-11-12T00:45:55;10.63;;;5.45;;
49412;SDS011;35493;50.276;9.372;2022-11-12T00:48:41;11.10;;;5.60;;
49412;SDS011;35493;50.276;9.372;2022-11-12T00:51:26;9.98;;;5.47;;
49412;SDS011;35493;50.276;9.372;2022-11-12T00:54:14;10.13;;;5.07;;
49412;SDS011;35493;50.276;9.372;2022-11-12T00:57:00;8.60;;;4.80;;
49412;SDS011;35493;50.276;9.372;2022-11-12T00:59:47;9.45;;;4.85;;
49412;SDS011;35493;50.276;9.372;2022-11-12T01:02:33;9.63;;;4.45;;
49412;SDS011;35493;50.276;9.372;2022-11-12T01:05:18;8.57;;;5.00;;
49412;SDS011;35493;50.276;9.372;2022-11-12T01:08:04;8.45;;;5.25;;
49412;SDS011;35493;50.276;9.372;2022-11-12T01:10:49;8.05;;;3.88;;
49412;SDS011;35493;50.276;9.372;2022-11-12T01:13:35;9.00;;;4.22;;
49412;SDS011;35493;50.276;9.372;2022-11-12T01:16:23;8.07;;;3.95;;
49412;SDS011;35493;50.276;9.372;2022-11-12T01:19:11;7.45;;;4.13;;
49412;SDS011;35493;50.276;9.372;2022-11-12T01:21:56;11.05;;;5.18;;
49412;SDS011;35493;50.276;9.372;2022-11-12T01:24:42;8.60;;;4.43;;
49412;SDS011;35493;50.276;9.372;2022-11-12T01:27:28;8.23;;;4.43;;
49412;SDS011;35493;50.276;9.372;2022-11-12T01:30:13;9.85;;;4.65;;
49412;SDS011;35493;50.276;9.372;2022-11-12T01:33:01;10.07;;;4.40;;
49412;SDS011;35493;50.276;9.372;2022-11-12T01:35:47;8.25;;;4.35;;
49412;SDS011;35493;50.276;9.372;2022-11-12T01:38:32;9.88;;;4.45;;
49412;SDS011;35493;50.276;9.372;2022-11-12T01:41:20;7.90;;;4.70;;
49412;SDS011;35493;50.276;9.372;2022-11-12T01:44:09;9.23;;;4.88;;
49412;SDS011;35493;50.276;9.372;2022-11-12T01:46:58;8.77;;;4.30;;
49412;SDS011;35493;50.276;9.372;2022-11-12T01:49:49;11.93;;;4.90;;
49412;SDS011;35493;50.276;9.372;2022-11-12T01:52:38;7.40;;;4.30;;
49412;SDS011;35493;50.276;9.372;2022-11-12T01:55:28;8.82;;;4.70;;
49412;SDS011;35493;50.276;9.372;2022-11-12T01:58:17;9.75;;;4.57;;
49412;SDS011;35493;50.276;9.372;2022-11-12T02:01:05;8.57;;;4.80;;
49412;SDS011;35493;50.276;9.372;2022-11-12T02:03:51;8.43;;;4.57;;
49412;SDS011;35493;50.276;9.372;2022-11-12T02:06:37;9.43;;;4.22;;
49412;SDS011;35493;50.276;9.372;2022-11-12T02:09:24;8.75;;;4.63;;
49412;SDS011;35493;50.276;9.372;2022-11-12T02:12:10;10.95;;;5.07;;
49412;SDS011;35493;50.276;9.372;2022-11-12T02:15:15;8.00;;;4.55;;
49412;SDS011;35493;50.276;9.372;2022-11-12T02:18:00;8.40;;;4.70;;
49412;SDS011;35493;50.276;9.372;2022-11-12T02:20:51;7.05;;;3.80;;
49412;SDS011;35493;50.276;9.372;2022-11-12T02:23:40;9.30;;;4.93;;
49412;SDS011;35493;50.276;9.372;2022-11-12T02:26:41;8.20;;;4.35;;
49412;SDS011;35493;50.276;9.372;2022-11-12T02:29:38;7.47;;;4.30;;
49412;SDS011;35493;50.276;9.372;2022-11-12T02:32:32;8.90;;;4.47;;
49412;SDS011;35493;50.276;9.372;2022-11-12T02:35:18;7.28;;;3.88;;
49412;SDS011;35493;50.276;9.372;2022-11-12T02:38:03;9.13;;;4.28;;
49412;SDS011;35493;50.276;9.372;2022-11-12T02:40:52;7.95;;;4.35;;
49412;SDS011;35493;50.276;9.372;2022-11-12T02:43:37;7.65;;;4.68;;
49412;SDS011;35493;50.276;9.372;2022-11-12T02:46:23;9.15;;;4.75;;
49412;SDS011;35493;50.276;9.372;2022-11-12T02:49:09;9.02;;;4.50;;
49412;SDS011;35493;50.276;9.372;2022-11-12T02:51:54;7.57;;;4.47;;
49412;SDS011;35493;50.276;9.372;2022-11-12T02:54:39;8.68;;;4.25;;
49412;SDS011;35493;50.276;9.372;2022-11-12T02:57:26;7.95;;;4.03;;
49412;SDS011;35493;50.276;9.372;2022-11-12T03:00:13;7.30;;;4.10;;
49412;SDS011;35493;50.276;9.372;2022-11-12T03:02:58;7.68;;;4.75;;
49412;SDS011;35493;50.276;9.372;2022-11-12T03:05:44;8.85;;;4.55;;
49412;SDS011;35493;50.276;9.372;2022-11-12T03:08:37;8.55;;;4.95;;
49412;SDS011;35493;50.276;9.372;2022-11-12T03:11:23;8.20;;;4.65;;
49412;SDS011;35493;50.276;9.372;2022-11-12T03:14:09;7.85;;;4.63;;
49412;SDS011;35493;50.276;9.372;2022-11-12T03:16:55;8.80;;;4.43;;
49412;SDS011;35493;50.276;9.372;2022-11-12T03:19:40;8.40;;;4.47;;
49412;SDS011;35493;50.276;9.372;2022-11-12T03:22:26;8.68;;;4.95;;
49412;SDS011;35493;50.276;9.372;2022-11-12T03:25:13;8.45;;;4.45;;
49412;SDS011;35493;50.276;9.372;2022-11-12T03:27:59;7.97;;;4.43;;
49412;SDS011;35493;50.276;9.372;2022-11-12T03:30:48;7.70;;;4.30;;
49412;SDS011;35493;50.276;9.372;2022-11-12T03:33:33;8.30;;;4.82;;
49412;SDS011;35493;50.276;9.372;2022-11-12T03:36:19;9.70;;;4.10;;
49412;SDS011;35493;50.276;9.372;2022-11-12T03:39:06;9.77;;;4.70;;
49412;SDS011;35493;50.276;9.372;2022-11-12T03:41:54;8.25;;;3.90;;
49412;SDS011;35493;50.276;9.372;2022-11-12T03:44:43;7.82;;;4.28;;
49412;SDS011;35493;50.276;9.372;2022-11-12T03:47:31;8.63;;;4.40;;
49412;SDS011;35493;50.276;9.372;2022-11-12T03:50:28;7.68;;;3.90;;
49412;SDS011;35493;50.276;9.372;2022-11-12T03:53:14;9.48;;;5.18;;
49412;SDS011;35493;50.276;9.372;2022-11-12T03:56:00;9.55;;;4.75;;
49412;SDS011;35493;50.276;9.372;2022-11-12T03:58:47;9.75;;;4.97;;
49412;SDS011;35493;50.276;9.372;2022-11-12T04:01:33;9.90;;;5.30;;
49412;SDS011;35493;50.276;9.372;2022-11-12T04:04:20;8.93;;;5.22;;
49412;SDS011;35493;50.276;9.372;2022-11-12T04:07:05;8.73;;;4.90;;
49412;SDS011;35493;50.276;9.372;2022-11-12T04:10:08;9.05;;;4.45;;
49412;SDS011;35493;50.276;9.372;2022-11-12T04:12:54;7.70;;;4.68;;
49412;SDS011;35493;50.276;9.372;2022-11-12T04:15:58;9.13;;;4.70;;
49412;SDS011;35493;50.276;9.372;2022-11-12T04:19:04;7.60;;;4.30;;
49412;SDS011;35493;50.276;9.372;2022-11-12T04:22:11;9.75;;;4.55;;
49412;SDS011;35493;50.276;9.372;2022-11-12T04:24:57;8.68;;;4.20;;
49412;SDS011;35493;50.276;9.372;2022-11-12T04:28:01;8.63;;;4.57;;
49412;SDS011;35493;50.276;9.372;2022-11-12T04:30:47;7.60;;;4.28;;
49412;SDS011;35493;50.276;9.372;2022-11-12T04:33:32;8.85;;;4.88;;
49412;SDS011;35493;50.276;9.372;2022-11-12T04:36:17;8.73;;;4.88;;
49412;SDS011;35493;50.276;9.372;2022-11-12T04:39:04;7.18;;;4.68;;
49412;SDS011;35493;50.276;9.372;2022-11-12T04:41:49;9.07;;;5.35;;
49412;SDS011;35493;50.276;9.372;2022-11-12T04:44:53;10.45;;;5.55;;
49412;SDS011;35493;50.276;9.372;2022-11-12T04:47:46;9.60;;;4.88;;
49412;SDS011;35493;50.276;9.372;2022-11-12T04:50:31;12.55;;;4.90;;
49412;SDS011;35493;50.276;9.372;2022-11-12T04:53:17;8.73;;;4.80;;
49412;SDS011;35493;50.276;9.372;2022-11-12T04:56:05;8.73;;;5.00;;
49412;SDS011;35493;50.276;9.372;2022-11-12T04:58:51;8.38;;;4.70;;
49412;SDS011;35493;50.276;9.372;2022-11-12T05:01:41;9.68;;;5.28;;
49412;SDS011;35493;50.276;9.372;2022-11-12T05:04:29;8.40;;;4.55;;
49412;SDS011;35493;50.276;9.372;2022-11-12T05:07:15;8.27;;;4.68;;
49412;SDS011;35493;50.276;9.372;2022-11-12T05:10:02;6.97;;;4.15;;
49412;SDS011;35493;50.276;9.372;2022-11-12T05:12:50;9.80;;;5.10;;
49412;SDS011;35493;50.276;9.372;2022-11-12T05:15:35;9.13;;;4.57;;
49412;SDS011;35493;50.276;9.372;2022-11-12T05:18:23;9.60;;;4.63;;
49412;SDS011;35493;50.276;9.372;2022-11-12T05:21:09;8.85;;;5.10;;
49412;SDS011;35493;50.276;9.372;2022-11-12T05:24:12;9.82;;;5.28;;
49412;SDS011;35493;50.276;9.372;2022-11-12T05:26:57;9.80;;;4.75;;
49412;SDS011;35493;50.276;9.372;2022-11-12T05:29:44;9.23;;;5.18;;
49412;SDS011;35493;50.276;9.372;2022-11-12T05:32:30;9.13;;;4.68;;
49412;SDS011;35493;50.276;9.372;2022-11-12T05:35:19;7.75;;;4.70;;
49412;SDS011;35493;50.276;9.372;2022-11-12T05:38:06;8.43;;;4.93;;
49412;SDS011;35493;50.276;9.372;2022-11-12T05:40:54;11.63;;;5.20;;
49412;SDS011;35493;50.276;9.372;2022-11-12T05:43:47;8.50;;;4.60;;
49412;SDS011;35493;50.276;9.372;2022-11-12T05:46:34;8.15;;;5.20;;
49412;SDS011;35493;50.276;9.372;2022-11-12T05:49:23;8.48;;;4.78;;
49412;SDS011;35493;50.276;9.372;2022-11-12T05:52:08;8.13;;;4.22;;
49412;SDS011;35493;50.276;9.372;2022-11-12T05:54:54;8.32;;;4.50;;
49412;SDS011;35493;50.276;9.372;2022-11-12T05:57:39;8.30;;;4.93;;
49412;SDS011;35493;50.276;9.372;2022-11-12T06:00:27;7.75;;;4.53;;
49412;SDS011;35493;50.276;9.372;2022-11-12T06:03:18;8.45;;;5.13;;
49412;SDS011;35493;50.276;9.372;2022-11-12T06:06:07;9.95;;;4.88;;
49412;SDS011;35493;50.276;9.372;2022-11-12T06:08:53;9.60;;;5.30;;
49412;SDS011;35493;50.276;9.372;2022-11-12T06:11:40;9.15;;;5.15;;
49412;SDS011;35493;50.276;9.372;2022-11-12T06:14:26;9.52;;;5.25;;
49412;SDS011;35493;50.276;9.372;2022-11-12T06:17:11;10.10;;;5.75;;
49412;SDS011;35493;50.276;9.372;2022-11-12T06:19:58;9.80;;;5.10;;
49412;SDS011;35493;50.276;9.372;2022-11-12T06:22:43;8.25;;;4.88;;
49412;SDS011;35493;50.276;9.372;2022-11-12T06:25:29;8.30;;;4.85;;
49412;SDS011;35493;50.276;9.372;2022-11-12T06:28:15;8.40;;;4.53;;
49412;SDS011;35493;50.276;9.372;2022-11-12T06:31:01;7.63;;;4.68;;
49412;SDS011;35493;50.276;9.372;2022-11-12T06:33:46;8.75;;;5.47;;
49412;SDS011;35493;50.276;9.372;2022-11-12T06:36:33;9.05;;;4.82;;
49412;SDS011;35493;50.276;9.372;2022-11-12T06:39:19;8.07;;;4.40;;
49412;SDS011;35493;50.276;9.372;2022-11-12T06:42:05;7.97;;;5.00;;
49412;SDS011;35493;50.276;9.372;2022-11-12T06:44:51;7.20;;;4.28;;
49412;SDS011;35493;50.276;9.372;2022-11-12T06:47:36;7.55;;;4.25;;
49412;SDS011;35493;50.276;9.372;2022-11-12T06:50:22;7.80;;;4.38;;
49412;SDS011;35493;50.276;9.372;2022-11-12T06:53:09;7.38;;;4.43;;
49412;SDS011;35493;50.276;9.372;2022-11-12T06:55:59;7.15;;;4.45;;
49412;SDS011;35493;50.276;9.372;2022-11-12T06:58:46;8.20;;;5.03;;
49412;SDS011;35493;50.276;9.372;2022-11-12T07:01:31;7.22;;;4.35;;
49412;SDS011;35493;50.276;9.372;2022-11-12T07:04:17;7.10;;;4.30;;
49412;SDS011;35493;50.276;9.372;2022-11-12T07:07:02;7.55;;;4.68;;
49412;SDS011;35493;50.276;9.372;2022-11-12T07:09:49;9.43;;;5.22;;
49412;SDS011;35493;50.276;9.372;2022-11-12T07:12:35;8.45;;;4.72;;
49412;SDS011;35493;50.276;9.372;2022-11-12T07:15:21;8.63;;;4.93;;
49412;SDS011;35493;50.276;9.372;2022-11-12T07:18:06;8.00;;;4.65;;
49412;SDS011;35493;50.276;9.372;2022-11-12T07:20:56;7.63;;;4.65;;
49412;SDS011;35493;50.276;9.372;2022-11-12T07:23:42;7.95;;;4.82;;
49412;SDS011;35493;50.276;9.372;2022-11-12T07:26:30;7.60;;;4.68;;
49412;SDS011;35493;50.276;9.372;2022-11-12T07:29:15;7.25;;;4.57;;
49412;SDS011;35493;50.276;9.372;2022-11-12T07:32:01;8.70;;;5.07;;
49412;SDS011;35493;50.276;9.372;2022-11-12T07:34:46;8.38;;;4.55;;
49412;SDS011;35493;50.276;9.372;2022-11-12T07:37:33;8.60;;;4.47;;
49412;SDS011;35493;50.276;9.372;2022-11-12T07:40:19;8.40;;;4.57;;
49412;SDS011;35493;50.276;9.372;2022-11-12T07:43:06;8.15;;;4.90;;
49412;SDS011;35493;50.276;9.372;2022-11-12T07:45:52;7.70;;;4.72;;
49412;SDS011;35493;50.276;9.372;2022-11-12T07:48:42;9.17;;;4.97;;
49412;SDS011;35493;50.276;9.372;2022-11-12T07:51:28;8.60;;;4.65;;
49412;SDS011;35493;50.276;9.372;2022-11-12T07:54:14;9.18;;;4.65;;
49412;SDS011;35493;50.276;9.372;2022-11-12T07:57:00;7.25;;;4.43;;
49412;SDS011;35493;50.276;9.372;2022-11-12T07:59:47;8.80;;;5.32;;
49412;SDS011;35493;50.276;9.372;2022-11-12T08:02:33;7.45;;;4.53;;
49412;SDS011;35493;50.276;9.372;2022-11-12T08:05:18;8.18;;;5.35;;
49412;SDS011;35493;50.276;9.372;2022-11-12T08:08:04;8.18;;;4.72;;
49412;SDS011;35493;50.276;9.372;2022-11-12T08:10:52;9.50;;;5.03;;
49412;SDS011;35493;50.276;9.372;2022-11-12T08:13:41;11.35;;;5.13;;
49412;SDS011;35493;50.276;9.372;2022-11-12T08:16:28;11.98;;;5.63;;
49412;SDS011;35493;50.276;9.372;2022-11-12T08:19:15;12.93;;;6.53;;
49412;SDS011;35493;50.276;9.372;2022-11-12T08:22:00;13.13;;;6.47;;
49412;SDS011;35493;50.276;9.372;2022-11-12T08:24:48;17.27;;;6.38;;
49412;SDS011;35493;50.276;9.372;2022-11-12T08:27:34;13.13;;;6.35;;
49412;SDS011;35493;50.276;9.372;2022-11-12T08:30:21;13.02;;;5.95;;
49412;SDS011;35493;50.276;9.372;2022-11-12T08:33:09;13.68;;;6.78;;
49412;SDS011;35493;50.276;9.372;2022-11-12T08:35:54;13.35;;;6.63;;
49412;SDS011;35493;50.276;9.372;2022-11-12T08:38:39;10.77;;;6.13;;
49412;SDS011;35493;50.276;9.372;2022-11-12T08:41:25;12.15;;;6.50;;
49412;SDS011;35493;50.276;9.372;2022-11-12T08:44:11;12.15;;;6.55;;
49412;SDS011;35493;50.276;9.372;2022-11-12T08:46:57;10.52;;;6.22;;
49412;SDS011;35493;50.276;9.372;2022-11-12T08:49:44;11.95;;;6.95;;
49412;SDS011;35493;50.276;9.372;2022-11-12T08:52:29;11.57;;;6.88;;
49412;SDS011;35493;50.276;9.372;2022-11-12T08:55:15;11.70;;;6.90;;
49412;SDS011;35493;50.276;9.372;2022-11-12T08:58:01;11.50;;;7.18;;
49412;SDS011;35493;50.276;9.372;2022-11-12T09:00:47;10.73;;;6.45;;
49412;SDS011;35493;50.276;9.372;2022-11-12T09:03:33;12.68;;;7.22;;
49412;SDS011;35493;50.276;9.372;2022-11-12T09:06:21;10.90;;;6.80;;
49412;SDS011;35493;50.276;9.372;2022-11-12T09:09:07;12.63;;;6.60;;
49412;SDS011;35493;50.276;9.372;2022-11-12T09:11:53;10.55;;;5.82;;
49412;SDS011;35493;50.276;9.372;2022-11-12T09:14:38;9.38;;;6.00;;
49412;SDS011;35493;50.276;9.372;2022-11-12T09:17:24;9.35;;;6.00;;
49412;SDS011;35493;50.276;9.372;2022-11-12T09:20:11;9.07;;;6.03;;
49412;SDS011;35493;50.276;9.372;2022-11-12T09:22:59;11.18;;;6.22;;
49412;SDS011;35493;50.276;9.372;2022-11-12T09:25:47;9.57;;;5.82;;
49412;SDS011;35493;50.276;9.372;2022-11-12T09:28:32;8.95;;;5.50;;
49412;SDS011;35493;50.276;9.372;2022-11-12T09:31:18;8.60;;;5.22;;
49412;SDS011;35493;50.276;9.372;2022-11-12T09:34:03;8.93;;;5.68;;
49412;SDS011;35493;50.276;9.372;2022-11-12T09:36:49;10.82;;;5.38;;
49412;SDS011;35493;50.276;9.372;2022-11-12T09:39:36;12.18;;;6.10;;
49412;SDS011;35493;50.276;9.372;2022-11-12T09:42:22;11.50;;;6.40;;
49412;SDS011;35493;50.276;9.372;2022-11-12T09:45:10;11.80;;;5.72;;
49412;SDS011;35493;50.276;9.372;2022-11-12T09:48:07;9.13;;;5.40;;
49412;SDS011;35493;50.276;9.372;2022-11-12T09:50:55;13.27;;;6.15;;
49412;SDS011;35493;50.276;9.372;2022-11-12T09:53:47;11.43;;;6.43;;
49412;SDS011;35493;50.276;9.372;2022-11-12T09:56:39;10.90;;;5.88;;
49412;SDS011;35493;50.276;9.372;2022-11-12T09:59:27;10.73;;;5.70;;
49412;SDS011;35493;50.276;9.372;2022-11-12T10:02:19;14.90;;;7.50;;
49412;SDS011;35493;50.276;9.372;2022-11-12T10:05:15;13.57;;;6.35;;
49412;SDS011;35493;50.276;9.372;2022-11-12T10:08:13;11.48;;;6.55;;
49412;SDS011;35493;50.276;9.372;2022-11-12T10:11:17;9.98;;;5.70;;
49412;SDS011;35493;50.276;9.372;2022-11-12T10:14:52;9.05;;;5.32;;
49412;SDS011;35493;50.276;9.372;2022-11-12T10:18:05;9.23;;;5.38;;
49412;SDS011;35493;50.276;9.372;2022-11-12T10:20:54;9.18;;;5.22;;
49412;SDS011;35493;50.276;9.372;2022-11-12T10:23:44;10.90;;;5.25;;
49412;SDS011;35493;50.276;9.372;2022-11-12T10:26:31;7.28;;;4.63;;
49412;SDS011;35493;50.276;9.372;2022-11-12T10:29:18;8.63;;;4.72;;
49412;SDS011;35493;50.276;9.372;2022-11-12T10:32:13;8.45;;;4.82;;
49412;SDS011;35493;50.276;9.372;2022-11-12T10:35:00;7.85;;;4.55;;
49412;SDS011;35493;50.276;9.372;2022-11-12T10:37:46;8.27;;;5.13;;
49412;SDS011;35493;50.276;9.372;2022-11-12T10:40:37;7.07;;;4.45;;
49412;SDS011;35493;50.276;9.372;2022-11-12T10:43:24;8.75;;;4.65;;
49412;SDS011;35493;50.276;9.372;2022-11-12T10:46:12;8.15;;;4.43;;
49412;SDS011;35493;50.276;9.372;2022-11-12T10:49:04;7.35;;;4.30;;
49412;SDS011;35493;50.276;9.372;2022-11-12T10:51:53;9.55;;;5.72;;
49412;SDS011;35493;50.276;9.372;2022-11-12T10:57:27;9.25;;;5.10;;
49412;SDS011;35493;50.276;9.372;2022-11-12T11:00:17;8.00;;;4.88;;
49412;SDS011;35493;50.276;9.372;2022-11-12T11:03:05;7.68;;;4.47;;
49412;SDS011;35493;50.276;9.372;2022-11-12T11:06:01;9.38;;;4.85;;
49412;SDS011;35493;50.276;9.372;2022-11-12T11:08:49;7.70;;;4.20;;
49412;SDS011;35493;50.276;9.372;2022-11-12T11:11:35;8.70;;;5.13;;
49412;SDS011;35493;50.276;9.372;2022-11-12T11:14:28;11.27;;;4.78;;
49412;SDS011;35493;50.276;9.372;2022-11-12T11:17:16;8.05;;;5.10;;
49412;SDS011;35493;50.276;9.372;2022-11-12T11:20:03;6.18;;;3.92;;
49412;SDS011;35493;50.276;9.372;2022-11-12T11:22:52;6.72;;;4.30;;
49412;SDS011;35493;50.276;9.372;2022-11-12T11:25:41;6.38;;;4.05;;
49412;SDS011;35493;50.276;9.372;2022-11-12T11:28:29;6.80;;;4.15;;
49412;SDS011;35493;50.276;9.372;2022-11-12T11:31:24;7.03;;;4.15;;
49412;SDS011;35493;50.276;9.372;2022-11-12T11:34:23;7.18;;;3.75;;
49412;SDS011;35493;50.276;9.372;2022-11-12T11:37:22;6.72;;;3.92;;
49412;SDS011;35493;50.276;9.372;2022-11-12T11:40:17;7.53;;;4.07;;
49412;SDS011;35493;50.276;9.372;2022-11-12T11:43:19;7.25;;;4.03;;
49412;SDS011;35493;50.276;9.372;2022-11-12T11:46:15;8.40;;;4.38;;
49412;SDS011;35493;50.276;9.372;2022-11-12T11:49:14;6.90;;;4.20;;
49412;SDS011;35493;50.276;9.372;2022-11-12T11:52:17;7.82;;;3.90;;
49412;SDS011;35493;50.276;9.372;2022-11-12T11:55:23;8.50;;;4.05;;
49412;SDS011;35493;50.276;9.372;2022-11-12T11:58:25;8.88;;;4.50;;
49412;SDS011;35493;50.276;9.372;2022-11-12T12:01:29;6.78;;;4.18;;
49412;SDS011;35493;50.276;9.372;2022-11-12T12:04:25;7.43;;;4.15;;
49412;SDS011;35493;50.276;9.372;2022-11-12T12:07:24;8.68;;;4.20;;
49412;SDS011;35493;50.276;9.372;2022-11-12T12:10:20;7.15;;;4.70;;
49412;SDS011;35493;50.276;9.372;2022-11-12T12:13:11;7.50;;;4.30;;
49412;SDS011;35493;50.276;9.372;2022-11-12T12:22:28;6.75;;;4.05;;
49412;SDS011;35493;50.276;9.372;2022-11-12T12:25:21;7.35;;;4.10;;
49412;SDS011;35493;50.276;9.372;2022-11-12T12:28:12;8.40;;;4.47;;
49412;SDS011;35493;50.276;9.372;2022-11-12T12:31:03;8.13;;;4.88;;
49412;SDS011;35493;50.276;9.372;2022-11-12T12:33:53;7.85;;;4.20;;
49412;SDS011;35493;50.276;9.372;2022-11-12T12:36:42;8.63;;;4.38;;
49412;SDS011;35493;50.276;9.372;2022-11-12T12:39:32;8.68;;;4.47;;
49412;SDS011;35493;50.276;9.372;2022-11-12T12:42:25;7.18;;;4.03;;
49412;SDS011;35493;50.276;9.372;2022-11-12T12:45:23;7.85;;;3.67;;
49412;SDS011;35493;50.276;9.372;2022-11-12T12:48:23;6.85;;;3.88;;
49412;SDS011;35493;50.276;9.372;2022-11-12T12:51:13;6.63;;;4.07;;
49412;SDS011;35493;50.276;9.372;2022-11-12T12:53:59;8.02;;;3.78;;
49412;SDS011;35493;50.276;9.372;2022-11-12T12:56:47;9.93;;;4.60;;
49412;SDS011;35493;50.276;9.372;2022-11-12T12:59:35;5.68;;;3.47;;
49412;SDS011;35493;50.276;9.372;2022-11-12T13:02:21;7.20;;;4.38;;
49412;SDS011;35493;50.276;9.372;2022-11-12T13:05:21;7.03;;;4.20;;
49412;SDS011;35493;50.276;9.372;2022-11-12T13:08:09;7.57;;;4.15;;
49412;SDS011;35493;50.276;9.372;2022-11-12T13:10:57;6.20;;;3.78;;
49412;SDS011;35493;50.276;9.372;2022-11-12T13:13:42;6.50;;;3.78;;
49412;SDS011;35493;50.276;9.372;2022-11-12T13:19:44;7.45;;;4.18;;
49412;SDS011;35493;50.276;9.372;2022-11-12T13:22:49;7.13;;;4.20;;
49412;SDS011;35493;50.276;9.372;2022-11-12T13:25:35;8.18;;;4.35;;
49412;SDS011;35493;50.276;9.372;2022-11-12T13:28:21;7.45;;;3.75;;
49412;SDS011;35493;50.276;9.372;2022-11-12T13:31:22;6.53;;;3.83;;
49412;SDS011;35493;50.276;9.372;2022-11-12T13:34:22;5.63;;;3.60;;
49412;SDS011;35493;50.276;9.372;2022-11-12T13:37:17;8.07;;;4.35;;
49412;SDS011;35493;50.276;9.372;2022-11-12T13:40:08;7.55;;;4.10;;
49412;SDS011;35493;50.276;9.372;2022-11-12T13:43:02;6.82;;;3.63;;
49412;SDS011;35493;50.276;9.372;2022-11-12T13:45:51;6.68;;;3.70;;
49412;SDS011;35493;50.276;9.372;2022-11-12T13:48:40;6.72;;;3.90;;
49412;SDS011;35493;50.276;9.372;2022-11-12T13:51:36;7.90;;;4.03;;
49412;SDS011;35493;50.276;9.372;2022-11-12T13:54:24;6.80;;;4.03;;
49412;SDS011;35493;50.276;9.372;2022-11-12T13:57:12;6.05;;;3.35;;
49412;SDS011;35493;50.276;9.372;2022-11-12T14:00:09;7.07;;;3.90;;
49412;SDS011;35493;50.276;9.372;2022-11-12T14:03:05;6.28;;;3.67;;
49412;SDS011;35493;50.276;9.372;2022-11-12T14:05:51;6.55;;;3.45;;
49412;SDS011;35493;50.276;9.372;2022-11-12T14:08:49;7.57;;;3.50;;
49412;SDS011;35493;50.276;9.372;2022-11-12T14:11:55;7.07;;;3.72;;
49412;SDS011;35493;50.276;9.372;2022-11-12T14:14:59;7.00;;;3.22;;
49412;SDS011;35493;50.276;9.372;2022-11-12T14:18:00;5.10;;;3.30;;
49412;SDS011;35493;50.276;9.372;2022-11-12T14:20:55;7.70;;;4.60;;
49412;SDS011;35493;50.276;9.372;2022-11-12T14:23:40;11.32;;;6.10;;
49412;SDS011;35493;50.276;9.372;2022-11-12T14:26:34;9.70;;;6.00;;
49412;SDS011;35493;50.276;9.372;2022-11-12T14:29:21;9.70;;;5.05;;
49412;SDS011;35493;50.276;9.372;2022-11-12T14:32:07;8.63;;;4.95;;
49412;SDS011;35493;50.276;9.372;2022-11-12T14:34:54;7.97;;;4.32;;
49412;SDS011;35493;50.276;9.372;2022-11-12T14:37:40;7.47;;;4.55;;
49412;SDS011;35493;50.276;9.372;2022-11-12T14:40:31;7.18;;;4.35;;
49412;SDS011;35493;50.276;9.372;2022-11-12T14:43:25;6.72;;;3.88;;
49412;SDS011;35493;50.276;9.372;2022-11-12T14:46:20;6.95;;;3.70;;
49412;SDS011;35493;50.276;9.372;2022-11-12T14:49:11;8.55;;;3.80;;
49412;SDS011;35493;50.276;9.372;2022-11-12T14:52:03;6.55;;;3.90;;
49412;SDS011;35493;50.276;9.372;2022-11-12T14:54:53;8.32;;;4.00;;
49412;SDS011;35493;50.276;9.372;2022-11-12T14:57:41;7.28;;;3.90;;
49412;SDS011;35493;50.276;9.372;2022-11-12T15:00:39;6.93;;;3.70;;
49412;SDS011;35493;50.276;9.372;2022-11-12T15:03:30;6.85;;;3.85;;
49412;SDS011;35493;50.276;9.372;2022-11-12T15:06:18;6.47;;;3.67;;
49412;SDS011;35493;50.276;9.372;2022-11-12T15:09:14;6.68;;;3.80;;
49412;SDS011;35493;50.276;9.372;2022-11-12T15:12:05;6.00;;;3.67;;
49412;SDS011;35493;50.276;9.372;2022-11-12T15:15:02;7.15;;;3.55;;
49412;SDS011;35493;50.276;9.372;2022-11-12T15:17:56;8.18;;;4.05;;
49412;SDS011;35493;50.276;9.372;2022-11-12T15:20:43;6.78;;;3.90;;
49412;SDS011;35493;50.276;9.372;2022-11-12T15:23:29;7.80;;;4.18;;
49412;SDS011;35493;50.276;9.372;2022-11-12T15:26:22;6.28;;;3.63;;
49412;SDS011;35493;50.276;9.372;2022-11-12T15:29:14;6.38;;;3.38;;
49412;SDS011;35493;50.276;9.372;2022-11-12T15:38:27;7.10;;;4.20;;
49412;SDS011;35493;50.276;9.372;2022-11-12T15:41:21;7.78;;;3.97;;
49412;SDS011;35493;50.276;9.372;2022-11-12T15:44:09;9.15;;;4.30;;
49412;SDS011;35493;50.276;9.372;2022-11-12T15:46:56;7.93;;;4.70;;
49412;SDS011;35493;50.276;9.372;2022-11-12T15:49:46;8.55;;;4.20;;
49412;SDS011;35493;50.276;9.372;2022-11-12T15:52:34;9.38;;;5.50;;
49412;SDS011;35493;50.276;9.372;2022-11-12T15:55:19;10.02;;;5.00;;
49412;SDS011;35493;50.276;9.372;2022-11-12T15:58:05;9.93;;;5.10;;
49412;SDS011;35493;50.276;9.372;2022-11-12T16:00:57;11.30;;;6.57;;
49412;SDS011;35493;50.276;9.372;2022-11-12T16:03:43;11.88;;;7.32;;
49412;SDS011;35493;50.276;9.372;2022-11-12T16:06:29;10.02;;;6.50;;
49412;SDS011;35493;50.276;9.372;2022-11-12T16:09:16;10.80;;;6.82;;
49412;SDS011;35493;50.276;9.372;2022-11-12T16:12:01;12.68;;;7.32;;
49412;SDS011;35493;50.276;9.372;2022-11-12T16:14:47;13.35;;;7.22;;
49412;SDS011;35493;50.276;9.372;2022-11-12T16:17:32;11.35;;;6.78;;
49412;SDS011;35493;50.276;9.372;2022-11-12T16:20:19;10.57;;;6.80;;
49412;SDS011;35493;50.276;9.372;2022-11-12T16:23:06;9.20;;;6.38;;
49412;SDS011;35493;50.276;9.372;2022-11-12T16:25:53;11.57;;;6.57;;
49412;SDS011;35493;50.276;9.372;2022-11-12T16:28:39;9.73;;;6.45;;
49412;SDS011;35493;50.276;9.372;2022-11-12T16:31:25;10.48;;;6.70;;
49412;SDS011;35493;50.276;9.372;2022-11-12T16:34:10;9.82;;;6.72;;
49412;SDS011;35493;50.276;9.372;2022-11-12T16:36:56;10.35;;;6.32;;
49412;SDS011;35493;50.276;9.372;2022-11-12T16:39:42;10.27;;;6.00;;
49412;SDS011;35493;50.276;9.372;2022-11-12T16:42:29;9.75;;;6.10;;
49412;SDS011;35493;50.276;9.372;2022-11-12T16:45:16;9.13;;;5.65;;
49412;SDS011;35493;50.276;9.372;2022-11-12T16:48:05;8.80;;;5.00;;
49412;SDS011;35493;50.276;9.372;2022-11-12T16:50:56;8.68;;;5.18;;
49412;SDS011;35493;50.276;9.372;2022-11-12T16:53:43;9.25;;;5.90;;
49412;SDS011;35493;50.276;9.372;2022-11-12T16:56:29;9.35;;;5.53;;
49412;SDS011;35493;50.276;9.372;2022-11-12T16:59:17;11.05;;;6.20;;
49412;SDS011;35493;50.276;9.372;2022-11-12T17:02:03;11.13;;;6.43;;
49412;SDS011;35493;50.276;9.372;2022-11-12T17:04:55;9.57;;;6.25;;
49412;SDS011;35493;50.276;9.372;2022-11-12T17:07:40;9.57;;;6.05;;
49412;SDS011;35493;50.276;9.372;2022-11-12T17:10:26;9.23;;;5.57;;
49412;SDS011;35493;50.276;9.372;2022-11-12T17:13:13;9.45;;;5.80;;
49412;SDS011;35493;50.276;9.372;2022-11-12T17:16:00;9.93;;;6.18;;